Time;durP1;ratioP1;P1;durP2;ratioP2;P2;SDS_P1;SDS_P2;PMS_P1;PMS_P2;Temp;Humidity;BMP_temperature;BMP_pressure;BME280_temperature;BME280_humidity;BME280_pressure;Samples;Min_cycle;Max_cycle;Signal;HPM_P1;HPM_P2
2021/05/22 00:00:46;;;;;;;3.50;1.33;;;10.20;81.30;;;;;;5045783;28;20393;-61
2021/05/22 00:03:14;;;;;;;9.35;1.83;;;10.20;81.30;;;;;;5047188;28;20049;-62
2021/05/22 00:05:42;;;;;;;3.00;1.25;;;10.20;81.30;;;;;;5047280;28;20052;-62
2021/05/22 00:08:09;;;;;;;3.20;1.30;;;10.20;81.40;;;;;;5046057;28;20083;-61
2021/05/22 00:10:37;;;;;;;5.10;1.20;;;10.20;81.40;;;;;;5047105;28;20053;-61
2021/05/22 00:13:05;;;;;;;9.20;1.73;;;10.10;81.30;;;;;;5047094;28;20049;-62
2021/05/22 00:15:34;;;;;;;7.25;1.00;;;10.20;81.30;;;;;;5045764;28;20071;-61
2021/05/22 00:18:02;;;;;;;5.00;1.17;;;10.10;81.30;;;;;;5047373;28;20053;-61
2021/05/22 00:20:30;;;;;;;4.55;1.15;;;10.10;81.20;;;;;;5047325;28;20413;-61
2021/05/22 00:22:57;;;;;;;3.90;1.10;;;10.10;81.20;;;;;;5048042;28;20057;-61
2021/05/22 00:25:25;;;;;;;3.92;1.00;;;10.10;81.30;;;;;;5048309;28;20500;-61
2021/05/22 00:27:53;;;;;;;3.85;1.08;;;10.10;81.60;;;;;;5031489;28;20413;-61
2021/05/22 00:30:21;;;;;;;3.60;1.42;;;10.10;81.70;;;;;;5031170;28;20068;-61
2021/05/22 00:32:49;;;;;;;2.72;1.00;;;10.10;81.80;;;;;;5032763;28;20057;-61
2021/05/22 00:35:17;;;;;;;3.58;1.23;;;10.10;81.90;;;;;;5031364;28;20049;-62
2021/05/22 00:37:44;;;;;;;5.28;1.23;;;10.00;81.90;;;;;;5031232;28;20505;-61
2021/05/22 00:40:13;;;;;;;3.95;1.35;;;10.00;82.30;;;;;;5040928;28;20053;-62
2021/05/22 00:42:41;;;;;;;6.55;1.30;;;10.00;82.60;;;;;;5050728;28;20505;-61
2021/05/22 00:45:21;;;;;;;4.82;1.05;;;10.00;82.70;;;;;;5050781;28;20045;-61
2021/05/22 00:47:55;;;;;;;3.88;1.20;;;10.00;82.90;;;;;;5051042;28;20048;-61
2021/05/22 00:50:35;;;;;;;5.38;1.40;;;10.00;83.20;;;;;;5050672;28;20068;-61
2021/05/22 00:53:06;;;;;;;3.47;1.20;;;10.00;83.20;;;;;;5050898;28;20049;-61
2021/05/22 00:55:34;;;;;;;3.85;0.82;;;10.00;83.40;;;;;;5048114;28;20409;-61
2021/05/22 00:58:04;;;;;;;1.20;1.10;;;10.00;83.40;;;;;;5047019;28;20413;-61
2021/05/22 01:00:51;;;;;;;2.88;1.20;;;10.00;83.90;;;;;;5049118;28;20052;-61
2021/05/22 01:03:26;;;;;;;4.05;1.30;;;10.00;83.80;;;;;;5049265;28;20056;-61
2021/05/22 01:06:12;;;;;;;3.38;0.95;;;10.00;83.90;;;;;;5049124;28;20687;-61
2021/05/22 01:08:45;;;;;;;3.40;1.50;;;9.90;84.00;;;;;;5050115;28;20053;-61
2021/05/22 01:11:17;;;;;;;3.45;1.38;;;9.90;84.00;;;;;;5050532;28;20061;-61
2021/05/22 01:13:48;;;;;;;5.57;1.33;;;9.90;84.10;;;;;;5050910;28;20497;-61
2021/05/22 01:16:19;;;;;;;2.60;0.90;;;9.90;84.50;;;;;;5050664;28;20053;-61
2021/05/22 01:18:48;;;;;;;3.78;1.20;;;9.90;84.60;;;;;;5050360;28;20061;-61
2021/05/22 01:21:16;;;;;;;3.92;1.20;;;9.90;84.60;;;;;;5050340;28;20048;-62
2021/05/22 01:23:56;;;;;;;2.38;0.82;;;9.90;84.60;;;;;;5050457;28;20064;-61
2021/05/22 01:26:26;;;;;;;3.40;1.17;;;9.90;84.80;;;;;;5050206;28;20057;-61
2021/05/22 01:28:57;;;;;;;2.58;0.90;;;10.00;85.00;;;;;;5050208;28;20053;-61
2021/05/22 01:31:25;;;;;;;5.25;1.40;;;10.00;85.20;;;;;;5049218;28;20395;-61
2021/05/22 01:33:52;;;;;;;3.90;0.90;;;9.90;85.10;;;;;;5049912;28;20064;-61
2021/05/22 01:36:21;;;;;;;3.58;1.60;;;10.00;85.20;;;;;;5049727;28;20063;-61
2021/05/22 01:38:51;;;;;;;2.95;1.00;;;9.90;85.20;;;;;;5050100;28;20076;-61
2021/05/22 01:41:19;;;;;;;1.58;0.98;;;10.00;85.20;;;;;;5048285;28;20111;-61
2021/05/22 01:43:51;;;;;;;2.08;0.90;;;9.90;85.60;;;;;;5049738;28;20049;-61
2021/05/22 01:46:24;;;;;;;3.58;1.10;;;9.90;85.40;;;;;;5049210;28;20413;-61
2021/05/22 01:48:53;;;;;;;1.25;0.60;;;10.00;85.40;;;;;;5051869;28;20057;-62
2021/05/22 01:51:24;;;;;;;1.15;0.85;;;9.90;85.40;;;;;;5052150;28;20045;-61
2021/05/22 01:54:10;;;;;;;2.33;0.90;;;10.00;85.60;;;;;;5059074;28;20485;-60
2021/05/22 01:56:39;;;;;;;1.85;0.80;;;9.90;85.60;;;;;;5051792;28;20056;-61
2021/05/22 01:59:07;;;;;;;0.65;0.60;;;9.90;85.90;;;;;;5052870;28;20444;-60
2021/05/22 02:01:35;;;;;;;3.47;1.10;;;10.00;85.80;;;;;;5052449;28;20056;-62
2021/05/22 02:04:04;;;;;;;2.45;0.93;;;10.00;85.70;;;;;;5051437;28;20061;-61
2021/05/22 02:06:42;;;;;;;4.22;0.73;;;10.00;85.80;;;;;;5051405;28;20045;-60
2021/05/22 02:09:13;;;;;;;1.75;0.90;;;10.00;85.70;;;;;;5050925;28;20497;-61
2021/05/22 02:11:44;;;;;;;2.38;0.80;;;10.00;85.70;;;;;;5052353;28;20060;-60
2021/05/22 02:14:19;;;;;;;2.85;0.90;;;10.00;85.80;;;;;;5050981;28;20531;-62
2021/05/22 02:16:50;;;;;;;1.50;0.80;;;10.00;85.70;;;;;;5051070;28;20048;-62
2021/05/22 02:19:20;;;;;;;1.98;1.00;;;10.00;85.80;;;;;;5052404;28;20060;-62
2021/05/22 02:21:48;;;;;;;2.25;0.90;;;10.10;85.90;;;;;;5052665;28;20049;-62
2021/05/22 02:24:18;;;;;;;3.90;0.90;;;10.00;86.10;;;;;;5050436;28;20056;-62
2021/05/22 02:26:46;;;;;;;4.78;0.95;;;10.00;85.90;;;;;;5032566;28;20417;-62
2021/05/22 02:29:17;;;;;;;2.75;1.10;;;10.00;85.90;;;;;;5034870;28;20053;-61
2021/05/22 02:31:47;;;;;;;1.38;0.70;;;10.10;86.00;;;;;;5030830;28;20057;-61
2021/05/22 02:34:26;;;;;;;3.20;0.88;;;10.10;86.00;;;;;;5031060;28;20046;-61
2021/05/22 02:36:55;;;;;;;0.95;0.80;;;10.10;85.90;;;;;;5032229;28;20057;-61
2021/05/22 02:39:24;;;;;;;3.38;0.95;;;10.10;85.90;;;;;;5035191;28;20053;-61
2021/05/22 02:41:53;;;;;;;2.08;0.90;;;10.10;85.90;;;;;;5047147;28;20383;-61
2021/05/22 02:44:25;;;;;;;2.25;0.80;;;10.10;85.90;;;;;;5042684;28;20053;-61
2021/05/22 02:46:54;;;;;;;3.15;0.80;;;10.10;86.00;;;;;;5049610;28;20045;-61
2021/05/22 02:49:27;;;;;;;2.22;0.98;;;10.10;85.90;;;;;;5051984;28;20057;-61
2021/05/22 02:51:58;;;;;;;2.15;0.75;;;10.10;85.90;;;;;;5050309;28;20048;-61
2021/05/22 02:54:29;;;;;;;1.58;0.77;;;10.20;86.10;;;;;;5051345;28;20053;-61
2021/05/22 02:56:57;;;;;;;8.05;1.10;;;10.10;86.30;;;;;;5049722;28;20053;-60
2021/05/22 02:59:27;;;;;;;3.03;1.10;;;10.10;86.40;;;;;;5049746;28;20053;-61
2021/05/22 03:01:55;;;;;;;1.60;1.05;;;10.00;86.70;;;;;;5051210;28;20044;-60
2021/05/22 03:04:23;;;;;;;1.23;0.90;;;10.00;87.00;;;;;;5051667;28;20057;-60
2021/05/22 03:06:51;;;;;;;3.92;0.90;;;10.00;87.00;;;;;;5051572;28;20057;-60
2021/05/22 03:09:18;;;;;;;3.80;1.00;;;10.00;87.00;;;;;;5049879;28;20044;-61
2021/05/22 03:11:46;;;;;;;1.25;0.75;;;10.00;87.20;;;;;;5051350;28;20045;-61
2021/05/22 03:14:14;;;;;;;1.88;1.05;;;10.00;87.20;;;;;;5051543;28;20061;-62
2021/05/22 03:16:42;;;;;;;1.23;0.70;;;10.00;87.30;;;;;;5051389;28;20064;-61
2021/05/22 03:19:09;;;;;;;1.65;0.77;;;10.00;87.50;;;;;;5051140;28;20064;-61
2021/05/22 03:21:37;;;;;;;4.43;0.90;;;10.00;87.50;;;;;;5051012;28;20053;-61
2021/05/22 03:24:09;;;;;;;1.17;0.65;;;10.00;87.60;;;;;;5045139;28;20057;-61
2021/05/22 03:26:38;;;;;;;0.70;0.70;;;10.00;87.70;;;;;;5051038;28;20053;-61
2021/05/22 03:29:06;;;;;;;1.05;0.85;;;10.00;87.60;;;;;;5051097;28;20057;-61
2021/05/22 03:31:34;;;;;;;4.50;0.98;;;10.00;87.70;;;;;;5051089;28;20064;-61
2021/05/22 03:34:03;;;;;;;0.88;0.80;;;10.00;87.70;;;;;;5049779;28;20053;-61
2021/05/22 03:36:31;;;;;;;1.90;0.88;;;10.00;87.90;;;;;;5051139;28;20493;-61
2021/05/22 03:38:59;;;;;;;1.75;1.00;;;10.00;87.90;;;;;;5050861;28;20072;-61
2021/05/22 03:41:27;;;;;;;1.05;0.70;;;9.90;88.00;;;;;;5030052;28;20489;-61
2021/05/22 03:43:55;;;;;;;2.00;0.93;;;9.90;88.30;;;;;;5029889;28;20057;-61
2021/05/22 03:46:22;;;;;;;1.98;1.20;;;9.90;88.30;;;;;;5031007;28;20064;-61
2021/05/22 03:48:51;;;;;;;1.98;0.90;;;9.90;88.30;;;;;;5029768;28;20057;-60
2021/05/22 03:51:19;;;;;;;2.53;1.00;;;9.90;88.40;;;;;;5030571;28;20524;-60
2021/05/22 03:53:47;;;;;;;1.60;0.80;;;9.90;88.30;;;;;;5030566;28;20061;-61
2021/05/22 03:56:15;;;;;;;1.98;1.10;;;9.90;88.30;;;;;;5029579;28;20049;-63
2021/05/22 03:58:42;;;;;;;1.13;1.00;;;9.90;88.30;;;;;;5031932;28;20421;-61
2021/05/22 04:01:11;;;;;;;3.65;1.00;;;10.00;88.30;;;;;;5049561;28;20419;-61
2021/05/22 04:03:39;;;;;;;1.27;1.13;;;10.00;88.30;;;;;;5050684;28;20056;-61
2021/05/22 04:06:07;;;;;;;1.33;1.10;;;10.00;88.30;;;;;;5050805;28;20056;-61
2021/05/22 04:08:34;;;;;;;1.13;1.10;;;10.00;88.30;;;;;;5050898;28;20056;-61
2021/05/22 04:11:03;;;;;;;2.15;1.30;;;10.00;88.20;;;;;;5050168;28;20062;-61
2021/05/22 04:13:31;;;;;;;2.83;1.17;;;10.00;88.20;;;;;;5050563;28;20056;-61
2021/05/22 04:16:00;;;;;;;1.98;1.08;;;10.10;88.20;;;;;;5050613;28;20524;-63
2021/05/22 04:18:27;;;;;;;1.60;1.40;;;10.10;88.10;;;;;;5050692;28;20053;-61
2021/05/22 04:20:55;;;;;;;1.35;1.15;;;10.10;88.10;;;;;;5050379;28;20057;-61
2021/05/22 04:23:23;;;;;;;2.38;1.20;;;10.10;88.00;;;;;;5050475;28;20519;-62
2021/05/22 04:25:51;;;;;;;3.67;1.38;;;10.10;88.00;;;;;;5050411;28;20057;-60
2021/05/22 04:28:19;;;;;;;2.15;1.55;;;10.10;88.00;;;;;;5050529;28;20813;-60
2021/05/22 04:30:47;;;;;;;2.15;1.33;;;10.10;88.00;;;;;;5034599;28;20176;-60
2021/05/22 04:33:14;;;;;;;2.50;1.40;;;10.10;88.00;;;;;;5030349;28;20061;-60
2021/05/22 04:35:42;;;;;;;2.08;1.40;;;10.10;88.00;;;;;;5032864;28;20049;-60
2021/05/22 04:38:10;;;;;;;2.45;1.40;;;10.10;88.00;;;;;;5030591;28;20364;-60
2021/05/22 04:40:37;;;;;;;1.75;1.20;;;10.20;87.90;;;;;;5043241;28;20504;-61
2021/05/22 04:43:05;;;;;;;2.58;1.52;;;10.20;87.90;;;;;;5048953;28;20056;-61
2021/05/22 04:45:34;;;;;;;1.30;1.15;;;10.20;87.90;;;;;;5050229;28;20494;-61
2021/05/22 04:48:02;;;;;;;1.25;1.15;;;10.20;87.90;;;;;;5048532;28;20064;-63
2021/05/22 04:50:32;;;;;;;3.80;1.60;;;10.10;87.80;;;;;;5045479;28;20056;-61
2021/05/22 04:53:00;;;;;;;1.73;1.63;;;10.10;87.80;;;;;;5047186;28;20071;-62
2021/05/22 04:55:28;;;;;;;2.75;1.80;;;10.10;87.80;;;;;;5045680;28;20053;-61
2021/05/22 04:57:56;;;;;;;2.92;2.13;;;10.10;87.80;;;;;;5047365;28;20053;-61
2021/05/22 05:00:23;;;;;;;1.83;1.70;;;10.10;87.80;;;;;;5045867;28;20064;-61
2021/05/22 05:02:54;;;;;;;2.83;1.67;;;10.10;87.80;;;;;;5045536;28;20056;-61
2021/05/22 05:05:24;;;;;;;3.25;2.00;;;10.10;87.80;;;;;;5046111;28;20064;-61
2021/05/22 05:07:52;;;;;;;2.70;1.80;;;10.10;87.70;;;;;;5029224;28;20060;-63
2021/05/22 05:10:20;;;;;;;2.75;1.70;;;10.10;87.70;;;;;;5039658;28;20052;-62
2021/05/22 05:12:48;;;;;;;1.95;1.80;;;10.10;87.70;;;;;;5049144;28;20041;-61
2021/05/22 05:15:15;;;;;;;3.00;2.10;;;10.10;87.80;;;;;;5050573;28;20053;-61
2021/05/22 05:17:43;;;;;;;1.80;1.70;;;10.00;87.80;;;;;;5050176;28;20049;-63
2021/05/22 05:20:12;;;;;;;2.85;2.05;;;10.00;87.80;;;;;;5050110;28;20044;-61
2021/05/22 05:22:39;;;;;;;1.98;1.85;;;10.00;87.80;;;;;;5050646;28;20049;-62
2021/05/22 05:25:09;;;;;;;2.63;1.80;;;10.00;87.80;;;;;;5050192;28;20056;-61
2021/05/22 05:27:36;;;;;;;3.15;2.10;;;10.00;87.80;;;;;;5050080;28;20048;-62
2021/05/22 05:30:05;;;;;;;5.82;2.00;;;10.00;87.80;;;;;;5048636;28;20057;-61
2021/05/22 05:32:33;;;;;;;2.90;1.65;;;10.00;87.80;;;;;;5049850;28;20057;-61
2021/05/22 05:35:01;;;;;;;2.28;2.08;;;10.00;87.70;;;;;;5049776;28;20045;-62
2021/05/22 05:37:29;;;;;;;2.70;1.98;;;10.00;87.60;;;;;;5048670;28;20435;-61
2021/05/22 05:39:57;;;;;;;3.55;2.30;;;10.00;87.60;;;;;;5048136;28;20049;-60
2021/05/22 05:42:25;;;;;;;3.13;2.38;;;10.10;87.50;;;;;;5031851;28;20647;-62
2021/05/22 05:44:53;;;;;;;3.70;2.20;;;10.10;87.40;;;;;;5049702;28;20049;-62
2021/05/22 05:47:21;;;;;;;2.72;2.53;;;10.10;87.30;;;;;;5049629;28;20053;-61
2021/05/22 05:49:49;;;;;;;3.83;2.22;;;10.10;87.30;;;;;;5049938;28;20053;-61
2021/05/22 05:52:17;;;;;;;2.05;1.95;;;10.10;87.30;;;;;;5049662;28;20053;-61
2021/05/22 05:54:44;;;;;;;3.60;1.83;;;10.10;87.20;;;;;;5049891;28;20068;-61
2021/05/22 05:57:12;;;;;;;2.88;1.85;;;10.10;87.20;;;;;;5049508;28;20057;-61
2021/05/22 05:59:40;;;;;;;2.03;1.92;;;10.10;87.10;;;;;;5049359;28;20059;-61
2021/05/22 06:02:07;;;;;;;4.43;2.22;;;10.10;87.10;;;;;;5047845;28;20060;-62
2021/05/22 06:04:35;;;;;;;3.00;2.28;;;10.10;87.00;;;;;;5031870;28;20056;-62
2021/05/22 06:07:03;;;;;;;2.58;1.77;;;10.20;87.00;;;;;;5047829;28;20052;-61
2021/05/22 06:09:34;;;;;;;2.83;2.10;;;10.20;86.90;;;;;;5049447;28;20064;-62
2021/05/22 06:12:03;;;;;;;1.85;1.60;;;10.20;86.80;;;;;;5049126;28;20057;-62
2021/05/22 06:14:37;;;;;;;2.55;2.03;;;10.20;86.70;;;;;;5049630;28;20048;-62
2021/05/22 06:17:05;;;;;;;2.40;1.98;;;10.30;86.60;;;;;;5049317;28;20092;-61
2021/05/22 06:19:35;;;;;;;2.85;2.13;;;10.30;86.50;;;;;;5049156;28;20053;-61
2021/05/22 06:22:04;;;;;;;3.40;2.30;;;10.30;86.40;;;;;;5047692;28;20059;-61
2021/05/22 06:24:32;;;;;;;1.70;1.60;;;10.30;86.30;;;;;;5040089;28;20048;-61
2021/05/22 06:26:59;;;;;;;2.90;1.92;;;10.30;86.00;;;;;;5046481;28;20316;-62
2021/05/22 06:29:27;;;;;;;4.57;2.40;;;10.30;85.90;;;;;;5040018;28;20087;-61
2021/05/22 06:32:06;;;;;;;3.38;2.17;;;10.30;85.70;;;;;;5047723;28;20436;-61
2021/05/22 06:34:35;;;;;;;3.72;2.45;;;10.30;85.60;;;;;;5046489;28;20053;-61
2021/05/22 06:37:03;;;;;;;2.30;2.10;;;10.30;85.60;;;;;;5047979;28;20056;-61
2021/05/22 06:39:31;;;;;;;2.92;1.90;;;10.40;85.50;;;;;;5046565;28;20049;-62
2021/05/22 06:41:59;;;;;;;3.50;1.88;;;10.50;85.40;;;;;;5048680;28;20059;-61
2021/05/22 06:44:37;;;;;;;2.45;1.98;;;10.70;85.10;;;;;;5046043;28;20061;-62
2021/05/22 06:47:05;;;;;;;1.83;1.73;;;10.80;84.80;;;;;;5049235;28;20053;-62
2021/05/22 06:49:33;;;;;;;3.00;2.35;;;10.80;84.40;;;;;;5048339;28;20061;-62
2021/05/22 06:52:02;;;;;;;1.85;1.70;;;10.90;84.10;;;;;;5037436;28;20056;-61
2021/05/22 06:54:34;;;;;;;2.72;1.70;;;10.90;83.90;;;;;;5048127;28;20060;-61
2021/05/22 06:57:02;;;;;;;2.67;1.70;;;11.00;83.80;;;;;;5047476;28;20421;-63
2021/05/22 06:59:30;;;;;;;1.65;1.55;;;11.00;83.70;;;;;;5046525;28;20052;-62
2021/05/22 07:01:58;;;;;;;2.35;1.40;;;11.10;83.40;;;;;;5046738;28;20067;-61
2021/05/22 07:04:26;;;;;;;1.90;1.40;;;11.20;82.90;;;;;;5047800;28;20071;-62
2021/05/22 07:06:54;;;;;;;1.63;1.20;;;11.30;82.70;;;;;;5047840;28;20421;-62
2021/05/22 07:09:21;;;;;;;1.52;1.40;;;11.30;82.40;;;;;;5047525;28;20049;-63
2021/05/22 07:11:49;;;;;;;1.98;1.40;;;11.30;81.90;;;;;;5046464;28;20517;-61
2021/05/22 07:14:17;;;;;;;2.05;1.27;;;11.30;81.60;;;;;;5046234;28;20041;-61
2021/05/22 07:16:57;;;;;;;1.15;1.08;;;11.50;81.50;;;;;;5028859;28;20052;-59
2021/05/22 07:19:26;;;;;;;5.07;1.30;;;11.70;81.10;;;;;;5045745;28;20442;-59
2021/05/22 07:21:55;;;;;;;1.33;1.00;;;11.80;80.30;;;;;;5011362;28;31408;-60
2021/05/22 07:24:24;;;;;;;1.30;1.20;;;11.90;80.20;;;;;;5045202;28;20052;-61
2021/05/22 07:26:52;;;;;;;1.02;0.90;;;12.20;79.80;;;;;;5047635;28;20049;-60
2021/05/22 07:29:20;;;;;;;2.05;0.93;;;12.50;79.60;;;;;;5046642;28;20053;-61
2021/05/22 07:31:48;;;;;;;2.30;1.10;;;12.80;78.80;;;;;;5013839;28;20053;-61
2021/05/22 07:34:16;;;;;;;1.05;0.95;;;13.10;77.60;;;;;;5047653;28;20052;-62
2021/05/22 07:36:44;;;;;;;1.05;1.00;;;13.30;76.60;;;;;;5046260;28;20489;-62
2021/05/22 07:39:13;;;;;;;0.80;0.75;;;13.60;75.70;;;;;;5047657;28;20057;-63
2021/05/22 07:41:45;;;;;;;0.95;0.75;;;14.20;75.00;;;;;;5047951;28;20065;-62
2021/05/22 07:44:14;;;;;;;0.80;0.80;;;14.60;73.60;;;;;;5047701;28;20049;-63
2021/05/22 07:46:42;;;;;;;0.70;0.70;;;15.20;72.00;;;;;;5046565;28;20049;-63
2021/05/22 07:49:11;;;;;;;0.85;0.75;;;15.60;69.80;;;;;;5041907;28;20365;-63
2021/05/22 07:51:42;;;;;;;0.88;0.80;;;15.80;68.10;;;;;;5036068;28;20068;-62
2021/05/22 07:54:10;;;;;;;1.35;1.17;;;15.90;67.60;;;;;;5045143;28;20424;-63
2021/05/22 07:56:38;;;;;;;1.05;0.73;;;15.90;66.20;;;;;;5046119;28;20053;-61
2021/05/22 07:59:06;;;;;;;2.10;0.70;;;15.80;64.30;;;;;;5045524;28;20060;-62
2021/05/22 08:01:34;;;;;;;0.40;0.40;;;15.80;64.40;;;;;;5044196;28;20064;-61
2021/05/22 08:04:02;;;;;;;1.25;0.60;;;16.00;63.90;;;;;;5046351;28;20457;-60
2021/05/22 08:06:30;;;;;;;0.60;0.45;;;16.00;63.50;;;;;;5046702;28;20060;-61
2021/05/22 08:08:58;;;;;;;1.27;0.70;;;16.30;63.40;;;;;;5044094;28;20774;-61
2021/05/22 08:11:26;;;;;;;0.75;0.60;;;16.30;62.10;;;;;;5043302;28;20072;-60
2021/05/22 08:13:54;;;;;;;0.50;0.50;;;16.20;61.60;;;;;;5046588;28;20489;-61
2021/05/22 08:16:22;;;;;;;4.85;0.90;;;15.80;62.20;;;;;;5046183;28;20504;-60
2021/05/22 08:18:50;;;;;;;1.55;0.60;;;15.80;62.50;;;;;;5044533;28;20049;-61
2021/05/22 08:21:22;;;;;;;0.88;0.75;;;15.70;62.40;;;;;;5045874;28;20080;-61
2021/05/22 08:23:51;;;;;;;1.83;0.88;;;15.60;61.60;;;;;;5041445;28;20045;-61
2021/05/22 08:26:21;;;;;;;1.20;1.08;;;15.50;61.70;;;;;;5025512;28;20045;-61
2021/05/22 08:29:09;;;;;;;0.73;0.60;;;15.60;61.60;;;;;;5041048;28;20045;-61
2021/05/22 08:31:37;;;;;;;3.88;1.10;;;15.40;61.60;;;;;;5044442;28;20053;-61
2021/05/22 08:34:05;;;;;;;1.63;0.95;;;15.30;61.90;;;;;;5042976;28;20075;-61
2021/05/22 08:36:33;;;;;;;1.63;0.70;;;15.00;62.00;;;;;;5042079;28;20095;-59
2021/05/22 08:39:01;;;;;;;1.02;0.93;;;14.80;62.60;;;;;;5045960;28;20049;-60
2021/05/22 08:41:33;;;;;;;1.70;1.05;;;14.50;63.00;;;;;;5039552;28;20057;-60
2021/05/22 08:44:04;;;;;;;1.50;1.05;;;14.30;63.40;;;;;;5045694;28;20405;-60
2021/05/22 08:46:32;;;;;;;1.27;0.95;;;14.30;63.80;;;;;;5054749;28;20057;-60
2021/05/22 08:48:59;;;;;;;1.60;1.15;;;14.30;63.90;;;;;;5049547;28;20053;-60
2021/05/22 08:51:27;;;;;;;1.63;1.27;;;14.20;63.90;;;;;;5049807;28;20041;-61
2021/05/22 08:53:55;;;;;;;1.88;1.33;;;14.00;64.30;;;;;;5049857;28;20053;-64
2021/05/22 08:56:23;;;;;;;3.25;1.30;;;13.80;64.80;;;;;;5049820;28;20433;-63
2021/05/22 08:58:52;;;;;;;1.95;1.13;;;13.70;65.30;;;;;;5048767;28;20040;-62
2021/05/22 09:01:20;;;;;;;1.98;1.35;;;13.60;65.50;;;;;;5045390;28;20045;-62
2021/05/22 09:03:54;;;;;;;2.00;1.40;;;13.60;65.70;;;;;;5047546;28;20426;-62
2021/05/22 09:06:22;;;;;;;1.77;1.40;;;13.60;65.90;;;;;;5049831;28;20457;-62
2021/05/22 09:09:06;;;;;;;2.20;1.50;;;13.80;65.90;;;;;;5048217;28;20053;-62
2021/05/22 09:11:52;;;;;;;2.22;1.20;;;13.90;66.00;;;;;;5030178;28;20418;-64
2021/05/22 09:14:41;;;;;;;2.20;1.60;;;13.80;65.50;;;;;;5044109;28;20758;-62
2021/05/22 09:17:10;;;;;;;3.10;1.85;;;13.70;65.90;;;;;;5047975;28;20068;-63
2021/05/22 09:19:38;;;;;;;1.80;1.52;;;13.70;66.10;;;;;;5047965;28;20385;-63
2021/05/22 09:22:32;;;;;;;2.72;1.30;;;13.60;66.40;;;;;;5048212;28;20415;-63
2021/05/22 09:25:02;;;;;;;2.30;1.35;;;13.50;66.50;;;;;;5047465;28;20049;-62
2021/05/22 09:27:36;;;;;;;3.80;1.17;;;13.50;66.70;;;;;;5049082;28;20053;-63
2021/05/22 09:30:13;;;;;;;;;;;13.40;67.00;;;;;;5049524;28;20056;-63
2021/05/22 09:32:42;;;;;;;2.13;0.93;;;13.30;67.30;;;;;;5050045;28;20691;-63
2021/05/22 09:35:11;;;;;;;3.15;1.52;;;13.30;67.30;;;;;;5049625;28;20493;-63
2021/05/22 09:37:54;;;;;;;2.08;1.30;;;13.20;67.40;;;;;;5049558;28;20649;-63
2021/05/22 09:40:27;;;;;;;4.32;1.35;;;13.20;67.70;;;;;;5049552;28;20053;-63
2021/05/22 09:42:56;;;;;;;2.03;1.27;;;13.10;67.80;;;;;;5049670;28;20061;-63
2021/05/22 09:45:39;;;;;;;2.72;1.52;;;13.00;67.90;;;;;;5049231;28;20071;-62
2021/05/22 09:48:17;;;;;;;2.53;1.45;;;12.80;67.90;;;;;;5049289;28;20052;-62
2021/05/22 09:50:53;;;;;;;2.40;1.27;;;12.60;68.40;;;;;;5049319;28;20057;-62
2021/05/22 09:53:36;;;;;;;6.95;1.58;;;12.50;68.90;;;;;;5031268;28;20063;-62
2021/05/22 09:56:21;;;;;;;1.77;1.20;;;12.50;69.20;;;;;;5049295;28;20237;-62
2021/05/22 09:58:56;;;;;;;3.00;1.60;;;12.50;69.20;;;;;;5049426;28;20065;-62
2021/05/22 10:01:32;;;;;;;1.85;1.58;;;12.50;69.30;;;;;;5048975;28;20057;-62
2021/05/22 10:04:19;;;;;;;1.65;1.33;;;12.60;69.30;;;;;;5047669;28;20064;-63
2021/05/22 10:06:47;;;;;;;3.60;1.27;;;12.80;69.00;;;;;;5049175;28;20049;-62
2021/05/22 10:09:17;;;;;;;2.72;1.38;;;13.00;68.70;;;;;;5047525;28;20049;-63
2021/05/22 10:12:03;;;;;;;7.03;1.30;;;13.30;68.40;;;;;;5048869;28;20064;-62
2021/05/22 10:14:37;;;;;;;4.00;1.27;;;13.50;67.90;;;;;;5048495;28;20053;-62
2021/05/22 10:17:07;;;;;;;4.13;1.60;;;13.80;67.50;;;;;;5048406;28;20060;-62
2021/05/22 10:19:36;;;;;;;3.95;1.38;;;13.90;66.90;;;;;;5042891;28;20497;-62
2021/05/22 10:22:07;;;;;;;2.92;1.00;;;14.00;66.30;;;;;;5027302;28;20229;-63
2021/05/22 10:24:34;;;;;;;3.88;1.23;;;14.20;65.80;;;;;;5029058;28;20061;-62
2021/05/22 10:27:02;;;;;;;2.55;1.17;;;14.30;65.80;;;;;;5031267;28;20060;-63
2021/05/22 10:29:32;;;;;;;1.75;1.38;;;14.50;65.20;;;;;;5028299;28;20057;-63
2021/05/22 10:32:00;;;;;;;2.58;1.10;;;14.60;65.10;;;;;;5028397;28;20057;-62
2021/05/22 10:34:35;;;;;;;2.85;0.90;;;14.70;64.80;;;;;;5026940;28;20406;-63
2021/05/22 10:37:04;;;;;;;2.92;0.98;;;14.80;64.60;;;;;;5027372;28;20125;-64
2021/05/22 10:39:41;;;;;;;1.27;0.93;;;14.90;64.50;;;;;;5014965;28;20061;-62
2021/05/22 10:42:29;;;;;;;5.78;1.52;;;14.90;64.30;;;;;;5029010;28;20053;-62
2021/05/22 10:45:19;;;;;;;4.68;1.80;;;14.80;64.30;;;;;;5028020;28;20057;-63
2021/05/22 10:47:48;;;;;;;4.68;1.40;;;14.70;64.70;;;;;;5027963;28;20604;-63
2021/05/22 10:50:48;;;;;;;2.35;1.13;;;14.50;64.80;;;;;;5027945;28;20057;-63
2021/05/22 10:53:36;;;;;;;5.15;1.30;;;14.20;64.70;;;;;;5023205;28;20050;-63
2021/05/22 10:56:19;;;;;;;2.60;1.20;;;14.00;64.70;;;;;;5046032;28;20490;-63
2021/05/22 10:58:59;;;;;;;4.05;1.25;;;13.80;65.00;;;;;;5047250;28;20056;-63
2021/05/22 11:01:31;;;;;;;2.33;1.30;;;13.70;64.90;;;;;;5050361;28;20054;-63
2021/05/22 11:04:15;;;;;;;5.75;1.30;;;13.60;64.80;;;;;;5044027;28;20083;-63
2021/05/22 11:07:01;;;;;;;4.93;1.45;;;13.70;65.20;;;;;;5045592;28;20064;-62
2021/05/22 11:09:32;;;;;;;2.90;1.38;;;13.90;65.20;;;;;;5046506;28;20068;-62
2021/05/22 11:12:02;;;;;;;3.05;1.40;;;14.30;64.50;;;;;;5044562;28;20052;-62
2021/05/22 11:14:43;;;;;;;1.40;1.30;;;14.80;63.90;;;;;;5047115;28;20508;-62
2021/05/22 11:17:26;;;;;;;5.53;1.88;;;15.10;62.40;;;;;;5046975;28;20052;-62
2021/05/22 11:20:06;;;;;;;4.25;1.77;;;15.50;62.10;;;;;;5046764;28;20409;-61
2021/05/22 11:22:41;;;;;;;1.55;1.10;;;15.90;61.30;;;;;;5047705;28;20053;-62
2021/05/22 11:25:12;;;;;;;4.88;1.33;;;16.20;59.60;;;;;;5048037;28;20064;-62
2021/05/22 11:27:48;;;;;;;3.70;1.63;;;16.50;58.80;;;;;;5047784;28;20045;-61
2021/05/22 11:30:38;;;;;;;2.15;1.50;;;16.60;58.40;;;;;;5047297;28;20409;-61
2021/05/22 11:33:11;;;;;;;5.60;1.70;;;16.60;57.60;;;;;;5046982;28;20049;-61
2021/05/22 11:35:44;;;;;;;4.22;1.52;;;16.20;57.40;;;;;;5028916;28;20059;-61
2021/05/22 11:38:17;;;;;;;2.88;1.73;;;15.60;58.10;;;;;;5047088;28;20386;-62
2021/05/22 11:41:03;;;;;;;3.38;1.77;;;15.00;59.30;;;;;;5047109;28;20056;-62
2021/05/22 11:43:39;;;;;;;2.45;1.33;;;14.60;60.50;;;;;;5045801;28;20053;-62
2021/05/22 11:46:12;;;;;;;6.22;1.48;;;14.30;61.40;;;;;;5046972;28;20053;-64
2021/05/22 11:48:49;;;;;;;2.45;1.67;;;14.00;62.10;;;;;;5046773;28;20504;-63
2021/05/22 11:51:24;;;;;;;3.55;1.80;;;13.90;62.60;;;;;;5047250;28;20057;-64
2021/05/22 11:53:55;;;;;;;3.63;2.08;;;13.90;62.80;;;;;;5046754;28;20053;-62
2021/05/22 11:56:25;;;;;;;3.80;1.80;;;13.70;63.10;;;;;;5047077;28;20048;-63
2021/05/22 11:58:54;;;;;;;3.15;1.60;;;13.50;63.60;;;;;;5046234;28;20045;-64
2021/05/22 12:01:26;;;;;;;6.88;1.95;;;13.40;64.00;;;;;;5042311;28;20454;-63
2021/05/22 12:04:00;;;;;;;4.35;1.80;;;13.30;64.30;;;;;;5028968;28;20493;-64
2021/05/22 12:06:31;;;;;;;;;;;13.30;64.60;;;;;;5047151;28;20049;-62
2021/05/22 12:09:01;;;;;;;3.22;1.73;;;13.30;64.80;;;;;;5046535;28;19931;-64
2021/05/22 12:11:31;;;;;;;2.33;1.60;;;13.30;64.90;;;;;;5045447;28;20374;-62
2021/05/22 12:14:04;;;;;;;4.85;1.83;;;13.40;65.00;;;;;;5045415;28;20049;-64
2021/05/22 12:16:33;;;;;;;1.80;1.13;;;13.50;65.00;;;;;;5047183;28;20553;-64
2021/05/22 12:19:15;;;;;;;3.03;1.80;;;13.50;65.10;;;;;;5045103;28;20049;-63
2021/05/22 12:21:49;;;;;;;4.95;1.92;;;13.60;65.10;;;;;;5039480;28;20055;-62
2021/05/22 12:24:18;;;;;;;2.45;1.73;;;13.60;64.90;;;;;;5050757;28;20060;-63
2021/05/22 12:26:49;;;;;;;4.57;1.70;;;13.70;64.70;;;;;;5049955;28;20063;-61
2021/05/22 12:29:17;;;;;;;3.08;1.48;;;13.70;64.60;;;;;;5047360;28;20049;-63
2021/05/22 12:31:50;;;;;;;5.38;1.60;;;13.70;64.50;;;;;;5048437;28;20064;-63
2021/05/22 12:34:27;;;;;;;4.55;1.60;;;13.80;64.40;;;;;;5049433;28;20128;-64
2021/05/22 12:37:00;;;;;;;4.80;2.40;;;13.80;64.30;;;;;;5048308;28;20051;-64
2021/05/22 12:39:32;;;;;;;;;;;13.80;64.30;;;;;;5049193;28;20056;-63
2021/05/22 12:42:11;;;;;;;2.33;1.42;;;13.70;64.50;;;;;;5046694;28;19925;-63
2021/05/22 12:44:40;;;;;;;4.93;1.85;;;13.70;64.60;;;;;;5031793;28;20056;-64
2021/05/22 12:47:11;;;;;;;3.35;1.33;;;13.70;64.40;;;;;;5048304;28;20057;-62
2021/05/22 12:50:01;;;;;;;0.70;0.70;;;13.60;64.20;;;;;;5049642;28;20060;-62
2021/05/22 12:52:46;;;;;;;1.52;1.10;;;13.60;63.80;;;;;;5048832;28;20053;-63
2021/05/22 12:55:22;;;;;;;2.15;1.25;;;13.80;63.60;;;;;;5047179;28;20060;-62
2021/05/22 12:57:50;;;;;;;1.42;1.20;;;13.90;63.00;;;;;;5049656;28;20061;-64
2021/05/22 13:00:19;;;;;;;1.25;1.13;;;14.00;62.60;;;;;;5048550;28;20052;-64
2021/05/22 13:02:55;;;;;;;2.05;0.80;;;14.20;62.30;;;;;;5049912;28;20516;-63
2021/05/22 13:05:33;;;;;;;1.35;1.25;;;14.30;61.70;;;;;;5046267;28;20482;-64
2021/05/22 13:08:10;;;;;;;1.90;1.10;;;14.50;61.40;;;;;;5047405;28;20072;-64